createdAt,value
2023-04-15T00:01:06.185Z,6.40
2023-04-15T00:03:34.549Z,6.50
2023-04-15T00:06:01.693Z,6.40
2023-04-15T00:08:28.846Z,6.45
2023-04-15T00:10:55.382Z,6.44
2023-04-15T00:13:21.916Z,6.41
2023-04-15T00:15:48.674Z,6.43
2023-04-15T00:18:15.214Z,6.45
2023-04-15T00:20:41.778Z,6.51
2023-04-15T00:23:08.604Z,6.45
2023-04-15T00:25:35.157Z,6.43
2023-04-15T00:28:01.752Z,6.35
2023-04-15T00:30:28.276Z,6.39
2023-04-15T00:32:55.360Z,6.44
2023-04-15T00:35:21.938Z,6.38
2023-04-15T00:37:48.516Z,6.43
2023-04-15T00:40:18.808Z,6.46
2023-04-15T00:42:45.680Z,6.34
2023-04-15T00:45:12.925Z,6.45
2023-04-15T00:47:42.255Z,6.51
2023-04-15T00:50:09.096Z,6.43
2023-04-15T00:52:36.141Z,6.42
2023-04-15T00:55:04.615Z,6.34
2023-04-15T00:57:31.637Z,6.40
2023-04-15T00:59:58.472Z,6.35
2023-04-15T01:02:25.189Z,6.45
2023-04-15T01:04:52.123Z,6.42
2023-04-15T01:07:18.792Z,6.45
2023-04-15T01:09:45.734Z,6.51
2023-04-15T01:12:14.112Z,6.44
2023-04-15T01:14:40.838Z,6.45
2023-04-15T01:17:07.542Z,6.47
2023-04-15T01:19:34.262Z,6.47
2023-04-15T01:22:02.902Z,6.45
2023-04-15T01:24:31.801Z,6.45
2023-04-15T01:26:58.509Z,6.49
2023-04-15T01:29:25.123Z,6.59
2023-04-15T01:31:53.061Z,6.49
2023-04-15T01:34:19.758Z,6.47
2023-04-15T01:36:46.822Z,6.55
2023-04-15T01:39:13.561Z,6.57
2023-04-15T01:41:40.891Z,6.50
2023-04-15T01:44:08.071Z,6.57
2023-04-15T01:46:36.471Z,6.40
2023-04-15T01:49:03.437Z,6.51
2023-04-15T01:51:30.017Z,6.41
2023-04-15T01:53:59.309Z,6.49
2023-04-15T01:56:26.621Z,6.51
2023-04-15T01:58:53.614Z,6.53
2023-04-15T02:01:20.751Z,6.49
2023-04-15T02:03:48.025Z,6.44
2023-04-15T02:06:15.043Z,6.53
2023-04-15T02:08:41.605Z,6.58
2023-04-15T02:11:08.427Z,6.56
2023-04-15T02:13:35.071Z,6.53
2023-04-15T02:16:01.667Z,6.43
2023-04-15T02:18:28.348Z,6.48
2023-04-15T02:20:56.679Z,6.49
2023-04-15T02:23:23.215Z,6.59
2023-04-15T02:25:53.313Z,6.50
2023-04-15T02:28:21.425Z,6.56
2023-04-15T02:30:52.567Z,6.45
2023-04-15T02:33:19.451Z,6.55
2023-04-15T02:35:46.033Z,6.54
2023-04-15T02:38:14.203Z,6.45
2023-04-15T02:40:40.949Z,6.47
2023-04-15T02:43:07.634Z,6.51
2023-04-15T02:45:34.410Z,6.48
2023-04-15T02:48:06.227Z,6.43
2023-04-15T02:50:33.450Z,6.59
2023-04-15T02:53:01.725Z,6.56
2023-04-15T02:55:28.848Z,6.56
2023-04-15T02:57:55.761Z,6.58
2023-04-15T03:00:22.677Z,6.46
2023-04-15T03:02:52.502Z,6.48
2023-04-15T03:05:19.213Z,6.62
2023-04-15T03:07:45.777Z,6.56
2023-04-15T03:10:12.362Z,6.62
2023-04-15T03:12:39.485Z,6.56
2023-04-15T03:15:06.865Z,6.51
2023-04-15T03:17:33.611Z,6.51
2023-04-15T03:20:02.468Z,6.49
2023-04-15T03:22:29.020Z,6.50
2023-04-15T03:24:55.572Z,6.62
2023-04-15T03:27:22.170Z,6.54
2023-04-15T03:29:48.710Z,6.58
2023-04-15T03:32:15.512Z,6.59
2023-04-15T03:34:42.356Z,6.57
2023-04-15T03:37:08.914Z,6.55
2023-04-15T03:39:35.768Z,6.57
2023-04-15T03:42:03.458Z,6.53
2023-04-15T03:44:30.581Z,6.47
2023-04-15T03:46:57.108Z,6.62
2023-04-15T03:49:24.544Z,6.59
2023-04-15T03:51:51.186Z,6.55
2023-04-15T03:54:17.690Z,6.54
2023-04-15T03:56:44.190Z,6.63
2023-04-15T03:59:11.434Z,6.57
2023-04-15T04:01:38.012Z,6.63
2023-04-15T04:04:04.778Z,6.50
2023-04-15T04:06:31.633Z,6.62
2023-04-15T04:08:58.159Z,6.63
2023-04-15T04:11:24.727Z,6.64
2023-04-15T04:13:51.249Z,6.65
2023-04-15T04:16:17.833Z,6.55
2023-04-15T04:18:44.407Z,6.56
2023-04-15T04:21:11.273Z,6.61
2023-04-15T04:23:37.826Z,6.67
2023-04-15T04:26:04.359Z,6.57
2023-04-15T04:28:30.890Z,6.57
2023-04-15T04:30:57.476Z,6.61
2023-04-15T04:33:24.343Z,6.60
2023-04-15T04:35:50.918Z,6.66
2023-04-15T04:38:17.419Z,6.56
2023-04-15T04:40:43.998Z,6.75
2023-04-15T04:43:10.645Z,6.73
2023-04-15T04:45:37.263Z,6.73
2023-04-15T04:48:07.265Z,6.73
2023-04-15T04:50:34.749Z,6.68
2023-04-15T04:53:01.860Z,6.72
2023-04-15T04:55:28.607Z,6.65
2023-04-15T04:57:55.200Z,6.69
2023-04-15T05:00:21.757Z,6.77
2023-04-15T05:02:48.659Z,6.78
2023-04-15T05:05:15.357Z,6.83
2023-04-15T05:07:42.153Z,6.93
2023-04-15T05:10:09.193Z,6.82
2023-04-15T05:12:37.504Z,6.73
2023-04-15T05:15:05.768Z,6.74
2023-04-15T05:17:33.437Z,6.87
2023-04-15T05:20:00.092Z,6.86
2023-04-15T05:22:26.732Z,6.88
2023-04-15T05:24:53.259Z,6.97
2023-04-15T05:27:19.756Z,6.98
2023-04-15T05:29:46.429Z,6.93
2023-04-15T05:32:12.979Z,7.01
2023-04-15T05:34:39.558Z,7.05
2023-04-15T05:37:06.115Z,7.01
2023-04-15T05:39:32.785Z,6.81
2023-04-15T05:42:00.049Z,7.01
2023-04-15T05:44:26.908Z,6.96
2023-04-15T05:47:03.689Z,6.96
2023-04-15T05:49:30.698Z,6.90
2023-04-15T05:51:57.207Z,6.92
2023-04-15T05:54:23.731Z,7.01
2023-04-15T05:56:50.367Z,6.89
2023-04-15T05:59:16.968Z,6.90
2023-04-15T06:01:43.924Z,6.96
2023-04-15T06:04:11.531Z,7.03
2023-04-15T06:06:38.469Z,6.92
2023-04-15T06:09:05.276Z,6.94
2023-04-15T06:11:31.910Z,6.94
2023-04-15T06:13:58.431Z,6.69
2023-04-15T06:16:25.017Z,6.96
2023-04-15T06:18:51.526Z,6.83
2023-04-15T06:21:18.080Z,6.88
2023-04-15T06:23:44.902Z,6.95
2023-04-15T06:26:11.512Z,6.96
2023-04-15T06:28:38.064Z,7.03
2023-04-15T06:31:04.748Z,6.92
2023-04-15T06:33:32.079Z,6.87
2023-04-15T06:35:58.632Z,6.99
2023-04-15T06:38:25.359Z,7.15
2023-04-15T06:40:51.878Z,7.19
2023-04-15T06:43:18.482Z,7.08
2023-04-15T06:45:45.031Z,7.22
2023-04-15T06:48:12.092Z,7.13
2023-04-15T06:50:38.825Z,7.05
2023-04-15T06:53:06.927Z,7.10
2023-04-15T06:55:34.718Z,7.43
2023-04-15T06:58:02.232Z,7.35
2023-04-15T07:00:29.163Z,7.32
2023-04-15T07:02:56.837Z,7.41
2023-04-15T07:05:23.595Z,7.49
2023-04-15T07:07:50.658Z,7.50
2023-04-15T07:10:17.366Z,7.52
2023-04-15T07:12:44.374Z,7.54
2023-04-15T07:15:11.956Z,7.46
2023-04-15T07:17:38.781Z,7.71
2023-04-15T07:20:06.195Z,7.71
2023-04-15T07:22:33.176Z,7.56
2023-04-15T07:25:00.035Z,7.70
2023-04-15T07:27:27.862Z,7.49
2023-04-15T07:29:55.163Z,7.53
2023-04-15T07:32:22.056Z,7.55
2023-04-15T07:34:48.866Z,7.97
2023-04-15T07:37:15.876Z,7.97
2023-04-15T07:39:43.030Z,8.03
2023-04-15T07:42:10.295Z,8.34
2023-04-15T07:44:37.242Z,8.27
2023-04-15T07:47:04.580Z,8.05
2023-04-15T07:49:32.866Z,8.50
2023-04-15T07:54:27.618Z,8.23
2023-04-15T07:56:54.346Z,8.62
2023-04-15T07:59:21.569Z,8.80
2023-04-15T08:01:48.327Z,8.79
2023-04-15T08:04:15.201Z,9.22
2023-04-15T08:06:41.876Z,9.55
2023-04-15T08:09:08.464Z,9.67
2023-04-15T08:11:35.057Z,10.05
2023-04-15T08:14:01.910Z,10.31
2023-04-15T08:16:28.609Z,10.29
2023-04-15T08:18:56.457Z,10.16
2023-04-15T08:21:23.768Z,10.07
2023-04-15T08:23:52.335Z,10.18
2023-04-15T08:26:20.342Z,10.37
2023-04-15T08:28:47.384Z,10.58
2023-04-15T08:31:18.957Z,10.84
2023-04-15T08:33:45.971Z,10.68
2023-04-15T08:36:13.838Z,10.41
2023-04-15T08:38:40.561Z,11.03
2023-04-15T08:41:26.792Z,10.50
2023-04-15T08:44:06.353Z,10.68
2023-04-15T08:46:35.127Z,10.83
2023-04-15T08:49:05.407Z,10.40
2023-04-15T08:51:34.055Z,10.52
2023-04-15T08:54:02.951Z,9.70
2023-04-15T08:56:33.372Z,9.80
2023-04-15T08:59:01.523Z,9.80
2023-04-15T09:01:29.577Z,10.63
2023-04-15T09:03:58.083Z,10.87
2023-04-15T09:06:26.553Z,10.98
2023-04-15T09:08:53.964Z,10.43
2023-04-15T09:11:22.751Z,10.36
2023-04-15T09:13:50.187Z,10.23
2023-04-15T09:16:16.843Z,10.15
2023-04-15T09:18:43.486Z,9.61
2023-04-15T09:21:13.665Z,9.79
2023-04-15T09:23:54.241Z,9.34
2023-04-15T09:26:34.642Z,9.49
2023-04-15T09:29:09.528Z,9.91
2023-04-15T09:31:37.403Z,9.93
2023-04-15T09:34:04.340Z,9.59
2023-04-15T09:36:51.839Z,9.31
2023-04-15T09:39:18.404Z,9.53
2023-04-15T09:41:45.211Z,9.60
2023-04-15T09:44:25.588Z,9.28
2023-04-15T09:46:52.187Z,9.37
2023-04-15T09:49:19.547Z,8.83
2023-04-15T09:51:54.364Z,9.30
2023-04-15T09:54:38.981Z,9.41
2023-04-15T09:57:07.351Z,8.58
2023-04-15T09:59:33.978Z,8.76
2023-04-15T10:02:01.078Z,8.91
2023-04-15T10:04:28.753Z,9.06
2023-04-15T10:06:56.679Z,9.59
2023-04-15T10:09:23.268Z,8.89
2023-04-15T10:11:50.355Z,8.96
2023-04-15T10:14:18.378Z,9.25
2023-04-15T10:16:49.034Z,9.13
2023-04-15T10:19:19.164Z,8.85
2023-04-15T10:21:46.616Z,9.07
2023-04-15T10:24:13.499Z,8.89
2023-04-15T10:26:40.608Z,9.17
2023-04-15T10:29:07.949Z,9.30
2023-04-15T10:31:36.306Z,9.16
2023-04-15T10:34:06.449Z,9.20
2023-04-15T10:36:33.364Z,9.11
2023-04-15T10:38:59.873Z,9.33
2023-04-15T10:41:29.901Z,9.06
2023-04-15T10:44:03.312Z,9.62
2023-04-15T10:46:37.496Z,10.05
2023-04-15T10:49:30.409Z,9.95
2023-04-15T10:51:59.894Z,9.57
2023-04-15T10:54:26.336Z,9.66
2023-04-15T10:57:08.094Z,9.07
2023-04-15T10:59:59.110Z,9.25
2023-04-15T11:02:46.625Z,9.93
2023-04-15T11:05:15.565Z,10.55
2023-04-15T11:07:49.516Z,10.45
2023-04-15T11:10:25.603Z,10.59
2023-04-15T11:12:54.358Z,9.93
2023-04-15T11:15:36.414Z,10.20
2023-04-15T11:18:20.375Z,10.14
2023-04-15T11:20:56.559Z,9.90
2023-04-15T11:23:32.291Z,9.42
2023-04-15T11:26:00.561Z,9.64
2023-04-15T11:28:31.315Z,9.69
2023-04-15T11:30:58.809Z,10.41
2023-04-15T11:33:25.989Z,10.06
2023-04-15T11:35:54.604Z,9.75
2023-04-15T11:38:22.276Z,10.06
2023-04-15T11:40:49.121Z,10.44
2023-04-15T11:43:20.313Z,11.00
2023-04-15T11:45:55.938Z,10.97
2023-04-15T11:48:34.123Z,11.03
2023-04-15T11:51:02.813Z,10.99
2023-04-15T11:53:49.808Z,10.81
2023-04-15T11:56:26.559Z,10.79
2023-04-15T11:59:02.269Z,10.79
2023-04-15T12:01:33.572Z,10.65
2023-04-15T12:04:01.548Z,10.38
2023-04-15T12:06:35.057Z,10.62
2023-04-15T12:09:15.265Z,10.37
2023-04-15T12:11:44.849Z,10.23
2023-04-15T12:14:24.336Z,10.14
2023-04-15T12:16:58.219Z,10.43
2023-04-15T12:19:28.572Z,10.15
2023-04-15T12:22:04.108Z,10.26
2023-04-15T12:24:35.094Z,10.43
2023-04-15T12:27:12.692Z,10.41
2023-04-15T12:29:41.823Z,10.70
2023-04-15T12:32:09.302Z,10.89
2023-04-15T12:34:37.157Z,10.72
2023-04-15T12:37:06.022Z,11.06
2023-04-15T12:39:36.662Z,10.99
2023-04-15T12:42:04.390Z,11.09
2023-04-15T12:44:31.328Z,11.21
2023-04-15T12:46:58.227Z,10.47
2023-04-15T12:49:25.536Z,10.85
2023-04-15T12:52:02.764Z,10.63
2023-04-15T12:54:31.029Z,10.57
2023-04-15T12:56:58.051Z,10.57
2023-04-15T12:59:25.039Z,10.69
2023-04-15T13:01:53.444Z,10.46
2023-04-15T13:04:21.170Z,10.62
2023-04-15T13:06:48.114Z,10.45
2023-04-15T13:09:15.681Z,10.61
2023-04-15T13:11:42.555Z,10.82
2023-04-15T13:14:11.358Z,10.78
2023-04-15T13:16:38.081Z,10.81
2023-04-15T13:19:04.929Z,10.51
2023-04-15T13:21:35.148Z,10.70
2023-04-15T13:24:02.859Z,10.39
2023-04-15T13:26:29.690Z,10.49
2023-04-15T13:28:56.679Z,10.73
2023-04-15T13:31:23.397Z,10.86
2023-04-15T13:33:50.260Z,10.37
2023-04-15T13:36:16.778Z,10.55
2023-04-15T13:38:43.338Z,10.50
2023-04-15T13:41:09.893Z,10.13
2023-04-15T13:43:36.618Z,10.18
2023-04-15T13:46:03.461Z,10.42
2023-04-15T13:48:30.129Z,10.44
2023-04-15T13:50:56.715Z,10.69
2023-04-15T13:53:33.976Z,10.32
2023-04-15T13:56:07.338Z,10.31
2023-04-15T13:58:33.854Z,10.41
2023-04-15T14:01:00.889Z,10.92
2023-04-15T14:03:28.750Z,10.83
2023-04-15T14:05:56.963Z,10.90
2023-04-15T14:08:24.945Z,10.98
2023-04-15T14:10:51.498Z,11.46
2023-04-15T14:13:19.541Z,11.56
2023-04-15T14:15:46.553Z,11.55
2023-04-15T14:18:13.210Z,11.12
2023-04-15T14:20:39.716Z,11.57
2023-04-15T14:23:06.405Z,11.26
2023-04-15T14:25:33.956Z,11.59
2023-04-15T14:28:01.530Z,11.58
2023-04-15T14:30:28.266Z,11.05
2023-04-15T14:32:54.893Z,11.21
2023-04-15T14:35:21.620Z,11.57
2023-04-15T14:37:48.129Z,11.78
2023-04-15T14:40:14.658Z,11.09
2023-04-15T14:42:41.196Z,11.18
2023-04-15T14:45:08.401Z,11.36
2023-04-15T14:47:34.980Z,11.99
2023-04-15T14:50:02.439Z,12.26
2023-04-15T14:52:29.271Z,12.48
2023-04-15T14:54:55.952Z,12.75
2023-04-15T14:57:22.494Z,11.79
2023-04-15T14:59:49.004Z,12.35
2023-04-15T15:02:36.856Z,12.92
2023-04-15T15:05:05.574Z,12.64
2023-04-15T15:07:32.301Z,11.95
2023-04-15T15:09:58.837Z,11.70
2023-04-15T15:12:25.574Z,12.05
2023-04-15T15:14:52.136Z,11.54
2023-04-15T15:17:18.739Z,11.81
2023-04-15T15:19:45.400Z,12.42
2023-04-15T15:22:11.921Z,12.53
2023-04-15T15:24:38.518Z,12.23
2023-04-15T15:27:05.226Z,12.39
2023-04-15T15:29:31.791Z,12.42
2023-04-15T15:31:59.440Z,12.35
2023-04-15T15:34:26.516Z,12.32
2023-04-15T15:36:55.058Z,12.15
2023-04-15T15:39:23.437Z,11.80
2023-04-15T15:41:50.628Z,12.01
2023-04-15T15:44:17.139Z,12.24
2023-04-15T15:46:43.877Z,12.02
2023-04-15T15:49:11.167Z,11.82
2023-04-15T15:51:37.732Z,12.14
2023-04-15T15:54:04.253Z,11.92
2023-04-15T15:56:30.770Z,11.71
2023-04-15T15:58:57.329Z,11.53
2023-04-15T16:01:24.020Z,11.39
2023-04-15T16:03:51.108Z,11.34
2023-04-15T16:06:17.818Z,11.14
2023-04-15T16:08:44.553Z,11.12
2023-04-15T16:11:11.128Z,10.96
2023-04-15T16:13:37.705Z,10.90
2023-04-15T16:16:04.388Z,10.92
2023-04-15T16:18:31.789Z,10.93
2023-04-15T16:20:59.534Z,10.94
2023-04-15T16:23:26.103Z,11.01
2023-04-15T16:25:52.781Z,10.93
2023-04-15T16:28:26.285Z,11.16
2023-04-15T16:30:53.900Z,11.11
2023-04-15T16:33:20.689Z,11.05
2023-04-15T16:35:47.282Z,11.04
2023-04-15T16:38:14.001Z,11.10
2023-04-15T16:40:40.724Z,11.04
2023-04-15T16:43:08.208Z,10.97
2023-04-15T16:45:34.890Z,10.84
2023-04-15T16:48:01.575Z,10.75
2023-04-15T16:50:28.422Z,10.44
2023-04-15T16:52:55.023Z,10.27
2023-04-15T16:55:21.724Z,10.54
2023-04-15T16:58:01.722Z,10.57
2023-04-15T17:00:29.635Z,10.58
2023-04-15T17:02:56.329Z,10.46
2023-04-15T17:05:23.028Z,10.59
2023-04-15T17:07:49.607Z,10.50
2023-04-15T17:10:16.501Z,10.29
2023-04-15T17:12:43.114Z,10.27
2023-04-15T17:15:10.079Z,10.37
2023-04-15T17:17:36.670Z,10.25
2023-04-15T17:20:03.759Z,10.11
2023-04-15T17:22:30.327Z,10.01
2023-04-15T17:24:56.841Z,10.11
2023-04-15T17:27:24.680Z,10.15
2023-04-15T17:29:51.466Z,9.98
2023-04-15T17:32:18.086Z,9.98
2023-04-15T17:34:49.657Z,9.94
2023-04-15T17:37:18.340Z,9.97
2023-04-15T17:39:45.057Z,9.95
2023-04-15T17:42:12.104Z,9.69
2023-04-15T17:44:38.977Z,9.75
2023-04-15T17:47:05.690Z,9.87
2023-04-15T17:49:34.143Z,9.77
2023-04-15T17:52:01.264Z,9.78
2023-04-15T17:54:28.117Z,9.70
2023-04-15T17:56:54.923Z,9.75
2023-04-15T17:59:21.534Z,9.80
2023-04-15T18:01:48.257Z,9.74
2023-04-15T18:04:14.993Z,9.70
2023-04-15T18:06:41.904Z,9.72
2023-04-15T18:09:11.437Z,9.69
2023-04-15T18:11:40.059Z,9.62
2023-04-15T18:14:06.926Z,9.58
2023-04-15T18:16:33.909Z,9.54
2023-04-15T18:19:01.169Z,9.43
2023-04-15T18:21:30.073Z,9.53
2023-04-15T18:23:56.599Z,9.35
2023-04-15T18:26:23.128Z,9.35
2023-04-15T18:28:49.864Z,9.41
2023-04-15T18:31:16.434Z,9.45
2023-04-15T18:33:42.985Z,9.38
2023-04-15T18:36:10.339Z,9.36
2023-04-15T18:38:36.912Z,9.34
2023-04-15T18:41:05.375Z,9.26
2023-04-15T18:43:32.478Z,9.12
2023-04-15T18:46:00.012Z,9.00
2023-04-15T18:48:27.024Z,9.26
2023-04-15T18:50:54.182Z,9.01
2023-04-15T18:53:21.694Z,8.96
2023-04-15T18:55:48.339Z,8.90
2023-04-15T18:58:14.912Z,8.82
2023-04-15T19:00:43.679Z,8.87
2023-04-15T19:03:11.393Z,8.86
2023-04-15T19:05:38.059Z,8.94
2023-04-15T19:08:04.733Z,8.94
2023-04-15T19:10:31.334Z,8.99
2023-04-15T19:12:57.922Z,8.96
2023-04-15T19:15:24.438Z,8.90
2023-04-15T19:17:51.024Z,8.83
2023-04-15T19:20:17.635Z,8.74
2023-04-15T19:22:44.819Z,8.70
2023-04-15T19:25:11.441Z,8.50
2023-04-15T19:27:41.187Z,8.46
2023-04-15T19:30:08.280Z,8.31
2023-04-15T19:32:35.780Z,8.42
2023-04-15T19:35:02.479Z,8.50
2023-04-15T19:37:29.148Z,8.29
2023-04-15T19:39:56.111Z,8.03
2023-04-15T19:42:22.844Z,7.85
2023-04-15T19:44:49.430Z,7.99
2023-04-15T19:47:16.357Z,8.00
2023-04-15T19:49:43.030Z,8.12
2023-04-15T19:52:09.562Z,8.31
2023-04-15T19:54:36.162Z,8.34
2023-04-15T19:57:03.007Z,8.36
2023-04-15T19:59:29.533Z,8.37
2023-04-15T20:01:56.240Z,8.27
2023-04-15T20:04:22.973Z,8.19
2023-04-15T20:06:50.049Z,8.36
2023-04-15T20:09:16.854Z,8.27
2023-04-15T20:12:47.458Z,8.22
2023-04-15T20:14:30.051Z,8.22
2023-04-15T20:16:56.906Z,8.18
2023-04-15T20:19:23.510Z,8.22
2023-04-15T20:21:51.998Z,8.21
2023-04-15T20:24:20.223Z,8.22
2023-04-15T20:26:47.002Z,8.25
2023-04-15T20:29:13.982Z,8.23
2023-04-15T20:31:40.786Z,8.15
2023-04-15T20:34:08.755Z,8.15
2023-04-15T20:36:36.523Z,8.10
2023-04-15T20:39:03.168Z,7.96
2023-04-15T20:41:29.886Z,8.02
2023-04-15T20:43:56.401Z,7.97
2023-04-15T20:46:24.538Z,8.13
2023-04-15T20:48:52.451Z,8.11
2023-04-15T20:51:19.098Z,8.08
2023-04-15T20:53:45.597Z,7.96
2023-04-15T20:56:12.115Z,8.05
2023-04-15T20:58:38.796Z,8.03
2023-04-15T21:01:05.388Z,8.02
2023-04-15T21:03:32.217Z,8.08
2023-04-15T21:05:58.921Z,8.04
2023-04-15T21:08:29.514Z,7.99
2023-04-15T21:10:56.919Z,7.97
2023-04-15T21:13:24.004Z,7.99
2023-04-15T21:15:53.397Z,7.86
2023-04-15T21:18:21.062Z,7.66
2023-04-15T21:20:55.398Z,7.59
2023-04-15T21:23:21.968Z,7.83
2023-04-15T21:25:48.500Z,7.76
2023-04-15T21:28:15.026Z,7.66
2023-04-15T21:30:41.542Z,7.68
2023-04-15T21:33:08.098Z,7.79
2023-04-15T21:35:34.622Z,7.94
2023-04-15T21:38:01.145Z,7.94
2023-04-15T21:40:27.674Z,7.77
2023-04-15T21:42:54.240Z,7.79
2023-04-15T21:45:20.782Z,7.66
2023-04-15T21:48:01.388Z,7.53
2023-04-15T21:50:34.014Z,7.69
2023-04-15T21:53:00.552Z,7.53
2023-04-15T21:55:27.223Z,7.40
2023-04-15T21:57:53.724Z,7.30
2023-04-15T22:00:21.284Z,7.45
2023-04-15T22:02:47.990Z,7.61
2023-04-15T22:05:14.684Z,7.55
2023-04-15T22:07:41.787Z,7.40
2023-04-15T22:10:08.938Z,7.27
2023-04-15T22:12:35.465Z,7.63
2023-04-15T22:15:02.712Z,7.70
2023-04-15T22:17:29.267Z,7.71
2023-04-15T22:19:55.833Z,7.54
2023-04-15T22:22:22.377Z,7.45
2023-04-15T22:25:00.375Z,7.52
2023-04-15T22:27:26.945Z,7.61
2023-04-15T22:29:53.634Z,7.60
2023-04-15T22:32:20.327Z,7.59
2023-04-15T22:34:46.889Z,7.55
2023-04-15T22:37:13.664Z,7.70
2023-04-15T22:39:40.328Z,7.69
2023-04-15T22:42:06.845Z,7.49
2023-04-15T22:44:33.360Z,7.36
2023-04-15T22:46:59.883Z,7.27
2023-04-15T22:49:26.971Z,7.24
2023-04-15T22:51:53.500Z,7.28
2023-04-15T22:54:20.058Z,7.22
2023-04-15T22:56:46.602Z,7.24
2023-04-15T22:59:13.130Z,7.20
2023-04-15T23:01:39.749Z,7.30
2023-04-15T23:04:23.469Z,7.25
2023-04-15T23:06:52.779Z,7.45
2023-04-15T23:09:19.303Z,7.36
2023-04-15T23:11:47.035Z,7.29
2023-04-15T23:14:13.611Z,7.28
2023-04-15T23:16:40.309Z,7.27
2023-04-15T23:19:07.143Z,7.33
2023-04-15T23:21:33.901Z,7.34
2023-04-15T23:24:00.574Z,7.35
2023-04-15T23:26:27.415Z,7.25
2023-04-15T23:28:55.639Z,7.25
2023-04-15T23:31:22.247Z,7.18
2023-04-15T23:33:48.779Z,7.19
2023-04-15T23:36:15.401Z,7.13
2023-04-15T23:38:42.285Z,7.13
2023-04-15T23:41:09.887Z,7.01
2023-04-15T23:43:36.658Z,6.99
2023-04-15T23:46:03.538Z,6.90
2023-04-15T23:48:30.197Z,6.87
2023-04-15T23:50:56.819Z,6.82
2023-04-15T23:53:23.375Z,6.83
2023-04-15T23:55:49.989Z,6.75
2023-04-15T23:58:16.673Z,6.71
